createdAt,value
2022-10-07T00:00:16.958Z,0
2022-10-07T00:05:16.801Z,0
2022-10-07T00:10:17.008Z,0
2022-10-07T00:15:16.760Z,0
2022-10-07T00:20:16.681Z,0
2022-10-07T00:25:16.891Z,0
2022-10-07T00:30:16.821Z,0
2022-10-07T00:35:16.996Z,0
2022-10-07T00:40:16.551Z,0
2022-10-07T00:45:18.076Z,0
2022-10-07T00:50:17.861Z,0
2022-10-07T00:55:17.811Z,0
2022-10-07T01:00:17.915Z,0
2022-10-07T01:05:18.157Z,0
2022-10-07T01:10:17.838Z,0
2022-10-07T01:15:17.841Z,0
2022-10-07T01:20:17.859Z,0
2022-10-07T01:25:17.809Z,0
2022-10-07T01:30:18.088Z,0
2022-10-07T01:35:18.191Z,0
2022-10-07T01:40:17.923Z,0
2022-10-07T01:45:18.067Z,0
2022-10-07T01:50:18.129Z,0
2022-10-07T01:55:18.776Z,0
2022-10-07T02:00:18.172Z,0
2022-10-07T02:05:17.906Z,0
2022-10-07T02:10:18.064Z,0
2022-10-07T02:15:18.317Z,0
2022-10-07T02:20:18.018Z,0
2022-10-07T02:25:17.998Z,0
2022-10-07T02:30:18.262Z,0
2022-10-07T02:35:17.983Z,0
2022-10-07T02:40:18.113Z,0
2022-10-07T02:45:21.171Z,0
2022-10-07T02:50:18.034Z,0
2022-10-07T02:55:18.336Z,0
2022-10-07T03:00:18.139Z,0
2022-10-07T03:05:18.020Z,0
2022-10-07T03:10:18.121Z,0
2022-10-07T03:15:18.262Z,0
2022-10-07T03:20:18.332Z,0
2022-10-07T03:25:18.295Z,0
2022-10-07T03:30:23.563Z,0
2022-10-07T03:35:18.057Z,0
2022-10-07T03:40:18.262Z,0
2022-10-07T03:45:18.249Z,0
2022-10-07T03:50:16.241Z,0
2022-10-07T03:55:16.346Z,0
2022-10-07T04:00:17.242Z,0
2022-10-07T04:05:17.217Z,0
2022-10-07T04:10:18.177Z,0
2022-10-07T04:15:17.242Z,0
2022-10-07T04:20:17.388Z,0
2022-10-07T04:25:17.385Z,0
2022-10-07T04:30:17.462Z,0
2022-10-07T04:35:18.131Z,0
2022-10-07T04:40:17.332Z,0
2022-10-07T04:45:17.316Z,0
2022-10-07T04:50:17.302Z,0
2022-10-07T04:55:17.347Z,0
2022-10-07T05:00:17.592Z,0
2022-10-07T05:05:17.320Z,0
2022-10-07T05:10:17.707Z,0
2022-10-07T05:15:17.461Z,0
2022-10-07T05:20:17.389Z,0
2022-10-07T05:25:17.293Z,0
2022-10-07T05:30:17.497Z,0
2022-10-07T05:35:17.645Z,0
2022-10-07T05:40:17.412Z,0
2022-10-07T05:45:17.777Z,0
2022-10-07T05:50:17.408Z,0
2022-10-07T05:55:17.410Z,0
2022-10-07T06:00:17.656Z,0
2022-10-07T06:05:17.472Z,0
2022-10-07T06:10:17.632Z,0
2022-10-07T06:15:17.767Z,0
2022-10-07T06:20:17.503Z,0
2022-10-07T06:25:17.550Z,0
2022-10-07T06:30:17.607Z,0
2022-10-07T06:35:17.675Z,0
2022-10-07T06:40:17.536Z,0
2022-10-07T06:45:17.856Z,0
2022-10-07T06:50:17.573Z,0
2022-10-07T06:55:17.538Z,0
2022-10-07T07:00:17.796Z,0
2022-10-07T07:05:17.624Z,0
2022-10-07T07:10:17.581Z,0
2022-10-07T07:15:17.724Z,0
2022-10-07T07:20:17.849Z,0
2022-10-07T07:25:17.984Z,0
2022-10-07T07:30:17.798Z,0
2022-10-07T07:35:17.662Z,0
2022-10-07T07:40:19.338Z,0
2022-10-07T07:45:17.957Z,0
2022-10-07T07:50:17.908Z,0
2022-10-07T07:55:17.784Z,0
2022-10-07T08:00:17.806Z,0
2022-10-07T08:05:21.484Z,0
2022-10-07T08:10:17.688Z,0
2022-10-07T08:15:17.891Z,0
2022-10-07T08:20:18.420Z,0
2022-10-07T08:25:17.863Z,0
2022-10-07T08:30:17.960Z,0
2022-10-07T08:35:18.117Z,0
2022-10-07T08:40:18.575Z,0
2022-10-07T08:45:17.824Z,0
2022-10-07T08:50:19.844Z,0
2022-10-07T08:55:17.888Z,0
2022-10-07T09:00:18.057Z,0
2022-10-07T09:05:17.874Z,0
2022-10-07T09:10:17.869Z,0
2022-10-07T09:15:17.997Z,0
2022-10-07T09:20:17.929Z,0
2022-10-07T09:25:17.902Z,0
2022-10-07T09:30:18.424Z,0
2022-10-07T09:35:18.049Z,0
2022-10-07T09:40:17.939Z,0
2022-10-07T09:45:18.384Z,0
2022-10-07T09:50:18.132Z,0
2022-10-07T09:55:18.104Z,0
2022-10-07T10:00:18.137Z,0
2022-10-07T10:05:17.909Z,0
2022-10-07T10:10:18.102Z,0
2022-10-07T10:15:18.039Z,0
2022-10-07T10:20:18.133Z,0
2022-10-07T10:25:18.150Z,0
2022-10-07T10:30:18.416Z,0
2022-10-07T10:35:18.608Z,0
2022-10-07T10:40:19.025Z,0
2022-10-07T10:45:18.485Z,0
2022-10-07T10:50:18.257Z,5
2022-10-07T10:55:18.328Z,8
2022-10-07T11:00:18.427Z,10
2022-10-07T11:05:18.027Z,13
2022-10-07T11:10:18.281Z,21
2022-10-07T11:15:18.156Z,29
2022-10-07T11:20:19.342Z,41
2022-10-07T11:25:18.168Z,72
2022-10-07T11:30:18.251Z,80
2022-10-07T11:35:19.186Z,78
2022-10-07T11:40:16.418Z,62
2022-10-07T11:45:16.446Z,66
2022-10-07T11:50:16.165Z,72
2022-10-07T11:55:16.597Z,71
2022-10-07T12:00:16.411Z,71
2022-10-07T12:05:16.481Z,99
2022-10-07T12:10:16.425Z,145
2022-10-07T12:15:16.325Z,205
2022-10-07T12:20:16.329Z,133
2022-10-07T12:25:16.244Z,261
2022-10-07T12:30:16.631Z,241
2022-10-07T12:35:16.361Z,139
2022-10-07T12:40:16.417Z,136
2022-10-07T12:45:16.740Z,166
2022-10-07T12:50:16.381Z,154
2022-10-07T12:55:16.415Z,261
2022-10-07T13:00:16.651Z,360
2022-10-07T13:05:16.591Z,372
2022-10-07T13:10:16.401Z,385
2022-10-07T13:15:16.636Z,398
2022-10-07T13:20:16.394Z,399
2022-10-07T13:25:16.415Z,422
2022-10-07T13:30:16.505Z,433
2022-10-07T13:35:16.396Z,445
2022-10-07T13:40:16.643Z,458
2022-10-07T13:45:16.505Z,473
2022-10-07T13:50:16.589Z,487
2022-10-07T13:55:16.675Z,478
2022-10-07T14:00:16.617Z,183
2022-10-07T14:05:16.466Z,632
2022-10-07T14:10:16.614Z,300
2022-10-07T14:15:16.662Z,434
2022-10-07T14:20:16.569Z,177
2022-10-07T14:25:16.550Z,210
2022-10-07T14:30:16.766Z,269
2022-10-07T14:35:16.541Z,591
2022-10-07T14:40:16.652Z,712
2022-10-07T14:45:16.644Z,659
2022-10-07T14:50:16.926Z,498
2022-10-07T14:55:16.553Z,495
2022-10-07T15:00:16.898Z,659
2022-10-07T15:05:16.841Z,651
2022-10-07T15:10:16.610Z,711
2022-10-07T15:15:16.964Z,264
2022-10-07T15:20:16.725Z,270
2022-10-07T15:25:16.960Z,348
2022-10-07T15:30:16.963Z,499
2022-10-07T15:35:16.678Z,738
2022-10-07T16:10:25.442Z,670
2022-10-07T16:15:16.939Z,666
2022-10-07T16:20:16.761Z,664
2022-10-07T16:25:16.776Z,662
2022-10-07T16:30:16.896Z,661
2022-10-07T16:35:16.887Z,659
2022-10-07T16:40:16.853Z,658
2022-10-07T16:45:16.865Z,659
2022-10-07T16:50:16.920Z,656
2022-10-07T16:55:16.760Z,654
2022-10-07T17:00:16.968Z,653
2022-10-07T17:05:16.761Z,650
2022-10-07T17:10:17.093Z,646
2022-10-07T17:15:16.816Z,642
2022-10-07T17:20:17.331Z,640
2022-10-07T17:25:16.818Z,636
2022-10-07T17:30:17.142Z,631
2022-10-07T17:35:16.880Z,626
2022-10-07T17:40:17.209Z,620
2022-10-07T17:45:16.987Z,614
2022-10-07T17:50:17.073Z,607
2022-10-07T17:55:17.056Z,601
2022-10-07T18:00:18.077Z,594
2022-10-07T18:05:17.217Z,588
2022-10-07T18:10:17.002Z,579
2022-10-07T18:15:17.200Z,571
2022-10-07T18:20:17.227Z,563
2022-10-07T18:25:17.231Z,554
2022-10-07T18:30:17.554Z,545
2022-10-07T18:35:17.132Z,536
2022-10-07T18:40:17.150Z,528
2022-10-07T18:45:17.214Z,518
2022-10-07T18:50:17.291Z,507
2022-10-07T18:55:17.005Z,496
2022-10-07T19:00:17.246Z,485
2022-10-07T19:10:17.174Z,460
2022-10-07T19:15:17.207Z,448
2022-10-07T19:20:17.260Z,438
2022-10-07T19:25:17.332Z,426
2022-10-07T19:30:17.267Z,414
2022-10-07T19:35:17.070Z,400
2022-10-07T19:40:17.536Z,386
2022-10-07T19:45:17.108Z,374
2022-10-07T19:50:17.123Z,363
2022-10-07T19:55:17.217Z,348
2022-10-07T20:00:18.471Z,338
2022-10-07T20:05:17.129Z,323
2022-10-07T20:10:17.216Z,310
2022-10-07T20:15:17.292Z,295
2022-10-07T20:30:23.177Z,252
2022-10-07T20:35:17.347Z,236
2022-10-07T20:40:17.352Z,219
2022-10-07T20:45:17.301Z,201
2022-10-07T20:50:17.674Z,186
2022-10-07T20:55:17.315Z,169
2022-10-07T21:00:17.618Z,151
2022-10-07T21:05:17.329Z,134
2022-10-07T21:10:17.617Z,116
2022-10-07T21:15:17.512Z,99
2022-10-07T21:20:17.398Z,86
2022-10-07T21:25:17.480Z,75
2022-10-07T21:30:17.519Z,62
2022-10-07T21:35:17.418Z,47
2022-10-07T21:40:17.418Z,34
2022-10-07T21:45:17.584Z,22
2022-10-07T21:50:17.348Z,16
2022-10-07T21:55:17.592Z,13
2022-10-07T22:00:18.740Z,10
2022-10-07T22:05:17.405Z,8
2022-10-07T22:10:17.541Z,5
2022-10-07T22:15:17.710Z,1
2022-10-07T22:20:17.793Z,0
2022-10-07T22:25:17.654Z,0
2022-10-07T22:30:17.825Z,0
2022-10-07T22:35:17.500Z,0
2022-10-07T22:40:17.678Z,0
2022-10-07T22:45:17.598Z,0
2022-10-07T22:50:17.626Z,0
2022-10-07T22:55:17.694Z,0
2022-10-07T23:00:17.908Z,0
2022-10-07T23:05:17.529Z,0
2022-10-07T23:10:17.744Z,0
2022-10-07T23:15:17.629Z,0
2022-10-07T23:20:17.763Z,0
2022-10-07T23:25:17.604Z,0
2022-10-07T23:30:17.952Z,0
2022-10-07T23:35:17.709Z,0
2022-10-07T23:40:17.740Z,0
2022-10-07T23:45:18.109Z,0
2022-10-07T23:50:17.668Z,0
2022-10-07T23:55:17.686Z,0
